Terminal Aerodrome Forecast
Issued by NWS Louisville, KY

Home | Current Version | Previous Version | Text Only | Print | Product List | Glossary On
Versions: 1 2 3 4 5 6 7 8 9 10 11 12 13 14 15
000
FTUS43 KLMK 262320
TAFBWG
TAF
KBWG 262320Z 2700/2724 19010KT P6SM SCT060 BKN250
     FM270500 20004KT P6SM VCTS BKN030CB
     FM270900 22006KT 6SM BR VCSH BKN015
     FM271600 23007KT P6SM BKN035
     FM271800 21008KT P6SM BKN035 PROB30 2718/2722 P6SM TS BKN030CB=

USA.gov is the U.S. government's official web portal to all federal, state and local government web resources and services.